sensor_id;sensor_type;location;lat;lon;timestamp;pressure;altitude;pressure_sealevel;temperature;humidity
77881;BME280;67077;50.298;18.996;2023-02-01T00:01:09;97344.80;;;0.81;85.48
77881;BME280;67077;50.298;18.996;2023-02-01T00:03:37;97340.55;;;0.81;85.33
77881;BME280;67077;50.298;18.996;2023-02-01T00:06:04;97338.14;;;0.79;85.27
77881;BME280;67077;50.298;18.996;2023-02-01T00:08:32;97336.02;;;0.74;85.35
77881;BME280;67077;50.298;18.996;2023-02-01T00:11:07;97330.83;;;0.67;85.13
77881;BME280;67077;50.298;18.996;2023-02-01T00:13:36;97324.02;;;0.62;85.19
77881;BME280;67077;50.298;18.996;2023-02-01T00:16:06;97324.33;;;0.60;85.22
77881;BME280;67077;50.298;18.996;2023-02-01T00:18:34;97320.39;;;0.59;85.33
77881;BME280;67077;50.298;18.996;2023-02-01T00:21:01;97316.89;;;0.55;85.50
77881;BME280;67077;50.298;18.996;2023-02-01T00:23:32;97316.23;;;0.53;85.77
77881;BME280;67077;50.298;18.996;2023-02-01T00:26:05;97309.11;;;0.55;85.81
77881;BME280;67077;50.298;18.996;2023-02-01T00:28:32;97307.91;;;0.61;85.60
77881;BME280;67077;50.298;18.996;2023-02-01T00:31:01;97306.57;;;0.65;85.86
77881;BME280;67077;50.298;18.996;2023-02-01T00:33:30;97315.69;;;0.68;85.88
77881;BME280;67077;50.298;18.996;2023-02-01T00:35:58;97315.34;;;0.69;85.91
77881;BME280;67077;50.298;18.996;2023-02-01T00:38:27;97316.80;;;0.73;85.80
77881;BME280;67077;50.298;18.996;2023-02-01T00:40:54;97306.36;;;0.81;85.58
77881;BME280;67077;50.298;18.996;2023-02-01T00:43:21;97304.03;;;0.88;85.40
77881;BME280;67077;50.298;18.996;2023-02-01T00:45:48;97308.09;;;0.92;85.72
77881;BME280;67077;50.298;18.996;2023-02-01T00:48:14;97315.35;;;0.95;85.49
77881;BME280;67077;50.298;18.996;2023-02-01T00:50:42;97330.11;;;0.98;85.27
77881;BME280;67077;50.298;18.996;2023-02-01T00:53:10;97349.23;;;1.03;85.06
77881;BME280;67077;50.298;18.996;2023-02-01T00:55:37;97373.64;;;1.11;84.68
77881;BME280;67077;50.298;18.996;2023-02-01T00:58:04;97400.40;;;1.17;84.66
77881;BME280;67077;50.298;18.996;2023-02-01T01:00:32;97444.35;;;1.13;84.50
77881;BME280;67077;50.298;18.996;2023-02-01T01:02:59;97414.67;;;0.97;84.65
77881;BME280;67077;50.298;18.996;2023-02-01T01:05:26;97417.03;;;0.79;85.04
77881;BME280;67077;50.298;18.996;2023-02-01T01:07:54;97418.19;;;0.68;85.35
77881;BME280;67077;50.298;18.996;2023-02-01T01:10:20;97403.52;;;0.63;85.59
77881;BME280;67077;50.298;18.996;2023-02-01T01:12:47;97388.93;;;0.58;85.52
77881;BME280;67077;50.298;18.996;2023-02-01T01:15:14;97385.77;;;0.53;85.08
77881;BME280;67077;50.298;18.996;2023-02-01T01:17:41;97392.08;;;0.49;85.36
77881;BME280;67077;50.298;18.996;2023-02-01T01:20:08;97387.75;;;0.45;85.38
77881;BME280;67077;50.298;18.996;2023-02-01T01:22:35;97385.59;;;0.44;85.47
77881;BME280;67077;50.298;18.996;2023-02-01T01:25:02;97384.15;;;0.41;85.24
77881;BME280;67077;50.298;18.996;2023-02-01T01:27:29;97387.47;;;0.37;85.47
77881;BME280;67077;50.298;18.996;2023-02-01T01:29:56;97396.25;;;0.36;85.30
77881;BME280;67077;50.298;18.996;2023-02-01T01:32:23;97391.36;;;0.37;85.45
77881;BME280;67077;50.298;18.996;2023-02-01T01:34:49;97397.50;;;0.37;85.17
77881;BME280;67077;50.298;18.996;2023-02-01T01:37:16;97403.15;;;0.36;84.89
77881;BME280;67077;50.298;18.996;2023-02-01T01:39:43;97425.48;;;0.36;84.98
77881;BME280;67077;50.298;18.996;2023-02-01T01:42:11;97415.05;;;0.36;85.04
77881;BME280;67077;50.298;18.996;2023-02-01T01:44:58;97410.30;;;0.37;85.04
77881;BME280;67077;50.298;18.996;2023-02-01T01:47:31;97414.48;;;0.33;85.44
77881;BME280;67077;50.298;18.996;2023-02-01T01:50:01;97405.45;;;0.29;85.70
77881;BME280;67077;50.298;18.996;2023-02-01T01:52:28;97397.35;;;0.29;85.66
77881;BME280;67077;50.298;18.996;2023-02-01T01:54:56;97381.74;;;0.31;85.59
77881;BME280;67077;50.298;18.996;2023-02-01T01:57:27;97403.73;;;0.30;85.52
77881;BME280;67077;50.298;18.996;2023-02-01T02:00:05;97411.27;;;0.28;85.88
77881;BME280;67077;50.298;18.996;2023-02-01T02:02:35;97411.46;;;0.25;85.90
77881;BME280;67077;50.298;18.996;2023-02-01T02:05:03;97414.08;;;0.25;85.72
77881;BME280;67077;50.298;18.996;2023-02-01T02:07:34;97407.87;;;0.25;85.93
77881;BME280;67077;50.298;18.996;2023-02-01T02:10:08;97408.21;;;0.24;85.63
77881;BME280;67077;50.298;18.996;2023-02-01T02:12:39;97413.90;;;0.20;85.73
77881;BME280;67077;50.298;18.996;2023-02-01T02:15:12;97425.89;;;0.21;85.78
77881;BME280;67077;50.298;18.996;2023-02-01T02:17:57;97417.81;;;0.22;85.82
77881;BME280;67077;50.298;18.996;2023-02-01T02:20:53;97416.86;;;0.21;85.96
77881;BME280;67077;50.298;18.996;2023-02-01T02:34:52;97421.05;;;0.25;86.42
77881;BME280;67077;50.298;18.996;2023-02-01T02:40:04;97421.13;;;0.24;86.35
77881;BME280;67077;50.298;18.996;2023-02-01T02:42:38;97420.91;;;0.27;86.36
77881;BME280;67077;50.298;18.996;2023-02-01T02:45:51;97421.44;;;0.29;86.34
77881;BME280;67077;50.298;18.996;2023-02-01T02:49:01;97421.05;;;0.28;86.38
77881;BME280;67077;50.298;18.996;2023-02-01T02:51:35;97422.98;;;0.29;86.42
77881;BME280;67077;50.298;18.996;2023-02-01T02:54:29;97430.55;;;0.35;86.19
77881;BME280;67077;50.298;18.996;2023-02-01T02:57:32;97432.96;;;0.37;86.13
77881;BME280;67077;50.298;18.996;2023-02-01T03:00:24;97432.73;;;0.36;86.15
77881;BME280;67077;50.298;18.996;2023-02-01T03:03:12;97426.84;;;0.38;85.87
77881;BME280;67077;50.298;18.996;2023-02-01T03:05:57;97428.61;;;0.41;85.63
77881;BME280;67077;50.298;18.996;2023-02-01T03:08:27;97430.04;;;0.41;85.68
77881;BME280;67077;50.298;18.996;2023-02-01T03:13:47;97429.20;;;0.37;85.56
77881;BME280;67077;50.298;18.996;2023-02-01T03:16:26;97426.16;;;0.41;85.59
77881;BME280;67077;50.298;18.996;2023-02-01T03:19:09;97422.52;;;0.44;85.49
77881;BME280;67077;50.298;18.996;2023-02-01T03:21:57;97431.54;;;0.46;85.54
77881;BME280;67077;50.298;18.996;2023-02-01T03:24:28;97434.78;;;0.44;85.63
77881;BME280;67077;50.298;18.996;2023-02-01T03:27:09;97436.19;;;0.43;85.35
77881;BME280;67077;50.298;18.996;2023-02-01T03:29:44;97437.61;;;0.46;85.38
77881;BME280;67077;50.298;18.996;2023-02-01T03:32:12;97441.63;;;0.50;85.59
77881;BME280;67077;50.298;18.996;2023-02-01T03:34:39;97453.21;;;0.52;85.59
77881;BME280;67077;50.298;18.996;2023-02-01T03:37:09;97458.10;;;0.51;85.49
77881;BME280;67077;50.298;18.996;2023-02-01T03:39:48;97451.30;;;0.44;85.61
77881;BME280;67077;50.298;18.996;2023-02-01T03:42:26;97432.61;;;0.39;85.70
77881;BME280;67077;50.298;18.996;2023-02-01T03:45:12;97432.38;;;0.33;85.95
77881;BME280;67077;50.298;18.996;2023-02-01T03:47:43;97433.61;;;0.26;86.13
77881;BME280;67077;50.298;18.996;2023-02-01T03:50:16;97439.02;;;0.19;86.27
77881;BME280;67077;50.298;18.996;2023-02-01T03:53:06;97441.15;;;0.16;86.57
77881;BME280;67077;50.298;18.996;2023-02-01T03:55:36;97434.61;;;0.17;86.51
77881;BME280;67077;50.298;18.996;2023-02-01T03:58:11;97434.27;;;0.19;86.57
77881;BME280;67077;50.298;18.996;2023-02-01T04:00:40;97428.87;;;0.18;86.58
77881;BME280;67077;50.298;18.996;2023-02-01T04:03:07;97420.52;;;0.15;86.90
77881;BME280;67077;50.298;18.996;2023-02-01T04:05:36;97422.24;;;0.14;86.96
77881;BME280;67077;50.298;18.996;2023-02-01T04:08:03;97424.27;;;0.13;86.79
77881;BME280;67077;50.298;18.996;2023-02-01T04:10:31;97422.59;;;0.11;86.89
77881;BME280;67077;50.298;18.996;2023-02-01T04:12:58;97421.05;;;0.06;86.80
77881;BME280;67077;50.298;18.996;2023-02-01T04:15:25;97426.34;;;0.01;87.01
77881;BME280;67077;50.298;18.996;2023-02-01T04:17:51;97427.92;;;-0.01;87.12
77881;BME280;67077;50.298;18.996;2023-02-01T04:20:18;97427.06;;;0.04;87.15
77881;BME280;67077;50.298;18.996;2023-02-01T04:22:45;97427.08;;;0.10;87.13
77881;BME280;67077;50.298;18.996;2023-02-01T04:25:12;97425.56;;;0.14;86.80
77881;BME280;67077;50.298;18.996;2023-02-01T04:27:39;97426.13;;;0.14;87.04
77881;BME280;67077;50.298;18.996;2023-02-01T04:30:06;97427.86;;;0.11;86.95
77881;BME280;67077;50.298;18.996;2023-02-01T04:32:36;97430.77;;;0.11;87.11
77881;BME280;67077;50.298;18.996;2023-02-01T04:35:04;97427.33;;;0.15;86.80
77881;BME280;67077;50.298;18.996;2023-02-01T04:37:30;97429.91;;;0.20;86.66
77881;BME280;67077;50.298;18.996;2023-02-01T04:39:57;97430.37;;;0.24;86.88
77881;BME280;67077;50.298;18.996;2023-02-01T04:42:25;97426.94;;;0.24;86.78
77881;BME280;67077;50.298;18.996;2023-02-01T04:44:52;97428.50;;;0.25;86.69
77881;BME280;67077;50.298;18.996;2023-02-01T04:47:18;97425.80;;;0.26;86.50
77881;BME280;67077;50.298;18.996;2023-02-01T04:49:45;97425.55;;;0.32;86.58
77881;BME280;67077;50.298;18.996;2023-02-01T04:52:12;97422.41;;;0.38;86.39
77881;BME280;67077;50.298;18.996;2023-02-01T04:54:38;97423.66;;;0.41;86.38
77881;BME280;67077;50.298;18.996;2023-02-01T04:57:06;97416.08;;;0.42;86.40
77881;BME280;67077;50.298;18.996;2023-02-01T04:59:33;97419.80;;;0.42;86.01
77881;BME280;67077;50.298;18.996;2023-02-01T05:02:00;97423.59;;;0.43;86.17
77881;BME280;67077;50.298;18.996;2023-02-01T05:04:26;97426.11;;;0.47;86.22
77881;BME280;67077;50.298;18.996;2023-02-01T05:06:53;97422.31;;;0.50;85.59
77881;BME280;67077;50.298;18.996;2023-02-01T05:09:20;97421.83;;;0.48;85.76
77881;BME280;67077;50.298;18.996;2023-02-01T05:11:48;97415.68;;;0.42;85.73
77881;BME280;67077;50.298;18.996;2023-02-01T05:14:34;97417.94;;;0.37;85.48
77881;BME280;67077;50.298;18.996;2023-02-01T05:17:01;97417.52;;;0.36;85.63
77881;BME280;67077;50.298;18.996;2023-02-01T05:19:28;97413.33;;;0.37;85.40
77881;BME280;67077;50.298;18.996;2023-02-01T05:21:54;97407.20;;;0.38;85.57
77881;BME280;67077;50.298;18.996;2023-02-01T05:24:21;97415.80;;;0.34;85.53
77881;BME280;67077;50.298;18.996;2023-02-01T05:26:48;97415.20;;;0.28;85.52
77881;BME280;67077;50.298;18.996;2023-02-01T05:29:16;97416.71;;;0.22;85.51
77881;BME280;67077;50.298;18.996;2023-02-01T05:31:46;97413.20;;;0.20;85.59
77881;BME280;67077;50.298;18.996;2023-02-01T05:34:14;97411.17;;;0.23;85.50
77881;BME280;67077;50.298;18.996;2023-02-01T05:36:44;97409.14;;;0.25;85.55
77881;BME280;67077;50.298;18.996;2023-02-01T05:39:11;97404.22;;;0.25;85.43
77881;BME280;67077;50.298;18.996;2023-02-01T05:41:37;97403.96;;;0.22;85.28
77881;BME280;67077;50.298;18.996;2023-02-01T05:44:04;97407.66;;;0.19;85.45
77881;BME280;67077;50.298;18.996;2023-02-01T05:46:35;97403.88;;;0.18;85.16
77881;BME280;67077;50.298;18.996;2023-02-01T05:49:03;97400.95;;;0.22;85.29
77881;BME280;67077;50.298;18.996;2023-02-01T05:51:31;97397.36;;;0.25;85.28
77881;BME280;67077;50.298;18.996;2023-02-01T05:53:58;97398.02;;;0.26;85.19
77881;BME280;67077;50.298;18.996;2023-02-01T05:56:24;97399.30;;;0.24;85.23
77881;BME280;67077;50.298;18.996;2023-02-01T05:58:51;97401.25;;;0.21;85.16
77881;BME280;67077;50.298;18.996;2023-02-01T06:01:18;97401.77;;;0.21;85.10
77881;BME280;67077;50.298;18.996;2023-02-01T06:03:45;97404.11;;;0.25;84.90
77881;BME280;67077;50.298;18.996;2023-02-01T06:06:11;97401.55;;;0.31;84.86
77881;BME280;67077;50.298;18.996;2023-02-01T06:08:38;97398.66;;;0.32;84.54
77881;BME280;67077;50.298;18.996;2023-02-01T06:11:07;97398.75;;;0.31;84.64
77881;BME280;67077;50.298;18.996;2023-02-01T06:13:34;97404.92;;;0.27;84.51
77881;BME280;67077;50.298;18.996;2023-02-01T06:16:04;97408.42;;;0.26;84.38
77881;BME280;67077;50.298;18.996;2023-02-01T06:18:35;97402.10;;;0.29;84.42
77881;BME280;67077;50.298;18.996;2023-02-01T06:21:02;97403.65;;;0.32;84.27
77881;BME280;67077;50.298;18.996;2023-02-01T06:23:30;97402.77;;;0.33;84.15
77881;BME280;67077;50.298;18.996;2023-02-01T06:25:59;97404.87;;;0.33;84.19
77881;BME280;67077;50.298;18.996;2023-02-01T06:28:30;97405.29;;;0.36;84.37
77881;BME280;67077;50.298;18.996;2023-02-01T06:30:58;97406.21;;;0.41;84.24
77881;BME280;67077;50.298;18.996;2023-02-01T06:33:25;97406.80;;;0.47;84.36
77881;BME280;67077;50.298;18.996;2023-02-01T06:36:01;97407.98;;;0.51;83.86
77881;BME280;67077;50.298;18.996;2023-02-01T06:38:28;97408.70;;;0.52;83.72
77881;BME280;67077;50.298;18.996;2023-02-01T06:40:57;97405.52;;;0.57;83.71
77881;BME280;67077;50.298;18.996;2023-02-01T06:43:26;97399.78;;;0.64;83.56
77881;BME280;67077;50.298;18.996;2023-02-01T06:45:58;97401.11;;;0.70;83.51
77881;BME280;67077;50.298;18.996;2023-02-01T06:48:25;97394.65;;;0.72;83.42
77881;BME280;67077;50.298;18.996;2023-02-01T06:50:51;97395.09;;;0.71;83.40
77881;BME280;67077;50.298;18.996;2023-02-01T06:53:18;97391.02;;;0.74;83.34
77881;BME280;67077;50.298;18.996;2023-02-01T06:55:56;97394.64;;;0.81;83.18
77881;BME280;67077;50.298;18.996;2023-02-01T06:58:23;97390.24;;;0.87;83.21
77881;BME280;67077;50.298;18.996;2023-02-01T07:00:50;97391.40;;;0.88;83.00
77881;BME280;67077;50.298;18.996;2023-02-01T07:03:20;97390.74;;;0.87;82.59
77881;BME280;67077;50.298;18.996;2023-02-01T07:05:47;97387.20;;;0.90;82.73
77881;BME280;67077;50.298;18.996;2023-02-01T07:08:14;97386.55;;;0.95;82.22
77881;BME280;67077;50.298;18.996;2023-02-01T07:10:41;97393.74;;;0.98;82.38
77881;BME280;67077;50.298;18.996;2023-02-01T07:13:08;97386.20;;;0.97;82.07
77881;BME280;67077;50.298;18.996;2023-02-01T07:15:35;97385.68;;;0.96;81.95
77881;BME280;67077;50.298;18.996;2023-02-01T07:18:01;97391.05;;;0.98;82.20
77881;BME280;67077;50.298;18.996;2023-02-01T07:20:28;97386.75;;;1.03;82.28
77881;BME280;67077;50.298;18.996;2023-02-01T07:22:56;97390.13;;;1.06;82.00
77881;BME280;67077;50.298;18.996;2023-02-01T07:25:24;97393.23;;;1.07;81.74
77881;BME280;67077;50.298;18.996;2023-02-01T07:27:51;97392.59;;;1.06;81.54
77881;BME280;67077;50.298;18.996;2023-02-01T07:30:19;97390.83;;;1.05;81.69
77881;BME280;67077;50.298;18.996;2023-02-01T07:32:46;97394.73;;;1.06;81.78
77881;BME280;67077;50.298;18.996;2023-02-01T07:35:13;97389.02;;;1.10;81.21
77881;BME280;67077;50.298;18.996;2023-02-01T07:37:40;97393.95;;;1.13;81.37
77881;BME280;67077;50.298;18.996;2023-02-01T07:40:08;97396.45;;;1.13;80.90
77881;BME280;67077;50.298;18.996;2023-02-01T07:42:35;97395.17;;;1.13;81.27
77881;BME280;67077;50.298;18.996;2023-02-01T07:45:02;97398.63;;;1.14;80.43
77881;BME280;67077;50.298;18.996;2023-02-01T07:47:30;97401.67;;;1.20;80.70
77881;BME280;67077;50.298;18.996;2023-02-01T07:49:56;97399.70;;;1.25;80.36
77881;BME280;67077;50.298;18.996;2023-02-01T07:52:23;97405.58;;;1.29;80.03
77881;BME280;67077;50.298;18.996;2023-02-01T07:54:50;97404.52;;;1.32;80.05
77881;BME280;67077;50.298;18.996;2023-02-01T07:57:17;97404.14;;;1.34;80.14
77881;BME280;67077;50.298;18.996;2023-02-01T07:59:46;97401.30;;;1.40;79.85
77881;BME280;67077;50.298;18.996;2023-02-01T08:02:34;97398.83;;;1.51;79.47
77881;BME280;67077;50.298;18.996;2023-02-01T08:05:00;97398.05;;;1.59;79.18
77881;BME280;67077;50.298;18.996;2023-02-01T08:07:27;97403.71;;;1.64;79.00
77881;BME280;67077;50.298;18.996;2023-02-01T08:09:54;97404.55;;;1.65;78.60
77881;BME280;67077;50.298;18.996;2023-02-01T08:12:20;97404.13;;;1.64;78.89
77881;BME280;67077;50.298;18.996;2023-02-01T08:14:47;97403.01;;;1.66;78.60
77881;BME280;67077;50.298;18.996;2023-02-01T08:17:14;97399.77;;;1.70;78.54
77881;BME280;67077;50.298;18.996;2023-02-01T08:19:41;97402.83;;;1.71;78.49
77881;BME280;67077;50.298;18.996;2023-02-01T08:22:08;97400.86;;;1.71;78.40
77881;BME280;67077;50.298;18.996;2023-02-01T08:24:35;97394.08;;;1.70;78.59
77881;BME280;67077;50.298;18.996;2023-02-01T08:27:05;97391.21;;;1.70;78.20
77881;BME280;67077;50.298;18.996;2023-02-01T08:29:32;97392.27;;;1.73;78.78
77881;BME280;67077;50.298;18.996;2023-02-01T08:31:59;97392.45;;;1.76;78.43
77881;BME280;67077;50.298;18.996;2023-02-01T08:34:27;97389.21;;;1.79;78.72
77881;BME280;67077;50.298;18.996;2023-02-01T08:36:54;97388.36;;;1.80;78.58
77881;BME280;67077;50.298;18.996;2023-02-01T08:39:26;97387.48;;;1.82;78.52
77881;BME280;67077;50.298;18.996;2023-02-01T08:41:53;97388.48;;;1.90;78.01
77881;BME280;67077;50.298;18.996;2023-02-01T08:44:39;97385.64;;;1.98;77.96
77881;BME280;67077;50.298;18.996;2023-02-01T08:47:07;97386.89;;;1.99;77.71
77881;BME280;67077;50.298;18.996;2023-02-01T08:49:35;97386.66;;;2.01;77.50
77881;BME280;67077;50.298;18.996;2023-02-01T08:52:03;97388.20;;;2.06;77.32
77881;BME280;67077;50.298;18.996;2023-02-01T08:54:30;97383.06;;;2.15;77.27
77881;BME280;67077;50.298;18.996;2023-02-01T08:56:57;97384.36;;;2.21;77.09
77881;BME280;67077;50.298;18.996;2023-02-01T08:59:25;97388.45;;;2.24;76.93
77881;BME280;67077;50.298;18.996;2023-02-01T09:01:53;97392.00;;;2.26;76.62
77881;BME280;67077;50.298;18.996;2023-02-01T09:04:23;97388.90;;;2.29;76.27
77881;BME280;67077;50.298;18.996;2023-02-01T09:06:50;97390.20;;;2.38;76.23
77881;BME280;67077;50.298;18.996;2023-02-01T09:09:20;97391.44;;;2.47;75.87
77881;BME280;67077;50.298;18.996;2023-02-01T09:11:46;97391.19;;;2.49;75.34
77881;BME280;67077;50.298;18.996;2023-02-01T09:14:13;97393.00;;;2.50;75.41
77881;BME280;67077;50.298;18.996;2023-02-01T09:16:40;97391.69;;;2.51;75.35
77881;BME280;67077;50.298;18.996;2023-02-01T09:19:07;97389.96;;;2.51;74.78
77881;BME280;67077;50.298;18.996;2023-02-01T09:21:34;97389.74;;;2.57;74.76
77881;BME280;67077;50.298;18.996;2023-02-01T09:24:02;97387.70;;;2.62;74.66
77881;BME280;67077;50.298;18.996;2023-02-01T09:26:30;97387.59;;;2.63;74.22
77881;BME280;67077;50.298;18.996;2023-02-01T09:28:57;97385.23;;;2.61;74.03
77881;BME280;67077;50.298;18.996;2023-02-01T09:31:24;97382.70;;;2.60;74.25
77881;BME280;67077;50.298;18.996;2023-02-01T09:33:51;97383.35;;;2.62;74.36
77881;BME280;67077;50.298;18.996;2023-02-01T09:36:18;97378.10;;;2.66;74.05
77881;BME280;67077;50.298;18.996;2023-02-01T09:38:46;97380.18;;;2.69;74.27
77881;BME280;67077;50.298;18.996;2023-02-01T09:46:59;97370.23;;;2.78;73.84
77881;BME280;67077;50.298;18.996;2023-02-01T09:49:34;97367.10;;;2.84;73.75
77881;BME280;67077;50.298;18.996;2023-02-01T09:52:14;97367.77;;;2.95;74.06
77881;BME280;67077;50.298;18.996;2023-02-01T09:55:12;97365.95;;;3.03;73.92
77881;BME280;67077;50.298;18.996;2023-02-01T09:57:53;97365.20;;;3.09;73.34
77881;BME280;67077;50.298;18.996;2023-02-01T10:00:27;97357.77;;;3.10;73.49
77881;BME280;67077;50.298;18.996;2023-02-01T10:02:56;97360.48;;;3.14;73.53
77881;BME280;67077;50.298;18.996;2023-02-01T10:05:58;97361.88;;;3.25;73.36
77881;BME280;67077;50.298;18.996;2023-02-01T10:11:13;97354.47;;;3.42;72.72
77881;BME280;67077;50.298;18.996;2023-02-01T10:13:53;97351.15;;;3.44;72.45
77881;BME280;67077;50.298;18.996;2023-02-01T10:16:31;97352.55;;;3.43;72.30
77881;BME280;67077;50.298;18.996;2023-02-01T10:21:58;97349.84;;;3.53;72.27
77881;BME280;67077;50.298;18.996;2023-02-01T10:24:38;97347.65;;;3.56;71.90
77881;BME280;67077;50.298;18.996;2023-02-01T10:27:20;97343.17;;;3.56;71.73
77881;BME280;67077;50.298;18.996;2023-02-01T10:29:57;97342.34;;;3.54;71.55
77881;BME280;67077;50.298;18.996;2023-02-01T10:32:30;97341.63;;;3.52;71.41
77881;BME280;67077;50.298;18.996;2023-02-01T10:35:00;97342.41;;;3.54;71.43
77881;BME280;67077;50.298;18.996;2023-02-01T10:37:32;97341.75;;;3.59;71.59
77881;BME280;67077;50.298;18.996;2023-02-01T10:40:21;97338.09;;;3.59;71.45
77881;BME280;67077;50.298;18.996;2023-02-01T10:42:57;97339.05;;;3.61;71.31
77881;BME280;67077;50.298;18.996;2023-02-01T10:45:27;97335.99;;;3.58;71.20
77881;BME280;67077;50.298;18.996;2023-02-01T10:47:57;97337.95;;;3.57;71.36
77881;BME280;67077;50.298;18.996;2023-02-01T10:53:02;97327.68;;;3.69;71.43
77881;BME280;67077;50.298;18.996;2023-02-01T10:58:32;97330.45;;;3.51;71.57
77881;BME280;67077;50.298;18.996;2023-02-01T11:01:03;97332.70;;;3.39;71.98
77881;BME280;67077;50.298;18.996;2023-02-01T11:03:34;97327.95;;;3.33;72.43
77881;BME280;67077;50.298;18.996;2023-02-01T11:06:08;97325.81;;;3.27;72.73
77881;BME280;67077;50.298;18.996;2023-02-01T11:08:47;97322.48;;;3.26;73.02
77881;BME280;67077;50.298;18.996;2023-02-01T11:11:14;97317.99;;;3.24;73.19
77881;BME280;67077;50.298;18.996;2023-02-01T11:13:41;97311.00;;;3.16;73.53
77881;BME280;67077;50.298;18.996;2023-02-01T11:16:12;97311.10;;;3.09;73.77
77881;BME280;67077;50.298;18.996;2023-02-01T11:18:41;97313.87;;;3.04;74.13
77881;BME280;67077;50.298;18.996;2023-02-01T11:21:09;97308.02;;;3.02;74.60
77881;BME280;67077;50.298;18.996;2023-02-01T11:23:41;97304.55;;;3.04;74.98
77881;BME280;67077;50.298;18.996;2023-02-01T11:26:11;97301.77;;;3.12;75.08
77881;BME280;67077;50.298;18.996;2023-02-01T11:28:40;97300.48;;;3.21;75.04
77881;BME280;67077;50.298;18.996;2023-02-01T11:31:12;97288.16;;;3.31;74.94
77881;BME280;67077;50.298;18.996;2023-02-01T11:33:49;97290.46;;;3.39;74.43
77881;BME280;67077;50.298;18.996;2023-02-01T11:36:28;97287.25;;;3.45;74.18
77881;BME280;67077;50.298;18.996;2023-02-01T11:44:33;97270.20;;;3.77;72.83
77881;BME280;67077;50.298;18.996;2023-02-01T11:47:30;97270.52;;;3.81;72.30
77881;BME280;67077;50.298;18.996;2023-02-01T11:50:00;97270.36;;;3.87;72.45
77881;BME280;67077;50.298;18.996;2023-02-01T12:17:14;97231.55;;;4.12;71.83
77881;BME280;67077;50.298;18.996;2023-02-01T12:20:05;97233.08;;;4.15;71.95
77881;BME280;67077;50.298;18.996;2023-02-01T12:35:48;97225.79;;;3.81;72.16
77881;BME280;67077;50.298;18.996;2023-02-01T12:41:04;97238.21;;;3.50;72.92
77881;BME280;67077;50.298;18.996;2023-02-01T12:49:05;97225.86;;;3.24;74.55
77881;BME280;67077;50.298;18.996;2023-02-01T12:51:36;97218.36;;;3.17;74.89
77881;BME280;67077;50.298;18.996;2023-02-01T12:54:22;97217.60;;;3.12;75.21
77881;BME280;67077;50.298;18.996;2023-02-01T12:57:02;97210.61;;;3.12;75.41
77881;BME280;67077;50.298;18.996;2023-02-01T12:59:44;97209.27;;;3.20;75.50
77881;BME280;67077;50.298;18.996;2023-02-01T13:02:38;97203.41;;;3.25;75.52
77881;BME280;67077;50.298;18.996;2023-02-01T13:05:16;97194.72;;;3.28;75.33
77881;BME280;67077;50.298;18.996;2023-02-01T13:15:41;97172.34;;;3.24;75.35
77881;BME280;67077;50.298;18.996;2023-02-01T13:18:16;97174.30;;;3.19;75.35
77881;BME280;67077;50.298;18.996;2023-02-01T13:20:47;97175.38;;;3.14;75.38
77881;BME280;67077;50.298;18.996;2023-02-01T13:23:23;97175.14;;;3.15;75.53
77881;BME280;67077;50.298;18.996;2023-02-01T13:25:55;97174.88;;;3.20;75.49
77881;BME280;67077;50.298;18.996;2023-02-01T13:28:29;97176.44;;;3.20;75.67
77881;BME280;67077;50.298;18.996;2023-02-01T13:39:48;97179.84;;;3.09;75.80
77881;BME280;67077;50.298;18.996;2023-02-01T13:42:25;97184.94;;;3.07;75.99
77881;BME280;67077;50.298;18.996;2023-02-01T13:45:13;97183.85;;;3.05;76.31
77881;BME280;67077;50.298;18.996;2023-02-01T13:47:44;97181.61;;;3.02;76.63
77881;BME280;67077;50.298;18.996;2023-02-01T13:50:23;97188.42;;;2.94;76.71
77881;BME280;67077;50.298;18.996;2023-02-01T13:53:00;97195.62;;;2.91;76.81
77881;BME280;67077;50.298;18.996;2023-02-01T13:55:32;97201.89;;;2.85;77.12
77881;BME280;67077;50.298;18.996;2023-02-01T13:58:18;97208.91;;;2.76;77.11
77881;BME280;67077;50.298;18.996;2023-02-01T14:00:48;97220.40;;;2.60;77.77
77881;BME280;67077;50.298;18.996;2023-02-01T14:03:22;97223.60;;;2.35;77.95
77881;BME280;67077;50.298;18.996;2023-02-01T14:19:36;97192.59;;;1.28;80.07
77881;BME280;67077;50.298;18.996;2023-02-01T14:24:52;97189.38;;;1.13;80.88
77881;BME280;67077;50.298;18.996;2023-02-01T14:27:26;97198.98;;;1.07;81.25
77881;BME280;67077;50.298;18.996;2023-02-01T14:30:07;97201.41;;;1.00;81.73
77881;BME280;67077;50.298;18.996;2023-02-01T14:32:36;97201.87;;;1.01;81.99
77881;BME280;67077;50.298;18.996;2023-02-01T14:35:26;97203.27;;;1.04;81.94
77881;BME280;67077;50.298;18.996;2023-02-01T14:37:59;97207.69;;;1.04;81.87
77881;BME280;67077;50.298;18.996;2023-02-01T14:40:29;97207.59;;;1.00;82.48
77881;BME280;67077;50.298;18.996;2023-02-01T14:42:56;97205.14;;;0.97;82.22
77881;BME280;67077;50.298;18.996;2023-02-01T14:55:42;97203.77;;;0.98;83.16
77881;BME280;67077;50.298;18.996;2023-02-01T14:58:18;97202.84;;;0.94;83.13
77881;BME280;67077;50.298;18.996;2023-02-01T15:01:03;97213.38;;;0.95;83.55
77881;BME280;67077;50.298;18.996;2023-02-01T15:09:12;97222.46;;;0.97;83.93
77881;BME280;67077;50.298;18.996;2023-02-01T15:14:47;97231.05;;;1.00;84.33
77881;BME280;67077;50.298;18.996;2023-02-01T15:17:29;97235.51;;;1.02;84.13
77881;BME280;67077;50.298;18.996;2023-02-01T15:20:14;97236.30;;;1.03;84.48
77881;BME280;67077;50.298;18.996;2023-02-01T15:22:43;97241.13;;;1.03;84.34
77881;BME280;67077;50.298;18.996;2023-02-01T15:25:22;97243.00;;;1.07;84.64
77881;BME280;67077;50.298;18.996;2023-02-01T15:27:49;97247.61;;;1.14;84.66
77881;BME280;67077;50.298;18.996;2023-02-01T15:30:25;97251.02;;;1.22;84.29
77881;BME280;67077;50.298;18.996;2023-02-01T15:33:07;97247.88;;;1.27;84.41
77881;BME280;67077;50.298;18.996;2023-02-01T15:35:46;97249.80;;;1.31;84.32
77881;BME280;67077;50.298;18.996;2023-02-01T15:41:11;97248.50;;;1.38;84.57
77881;BME280;67077;50.298;18.996;2023-02-01T15:46:31;97247.92;;;1.58;84.33